createdAt,value
2022-10-17T00:00:34.569Z,4.90
2022-10-17T00:03:03.171Z,4.27
2022-10-17T00:05:32.509Z,5.17
2022-10-17T00:08:00.551Z,5.27
2022-10-17T00:10:28.587Z,6.20
2022-10-17T00:12:56.599Z,4.77
2022-10-17T00:15:24.540Z,5.00
2022-10-17T00:17:52.610Z,5.23
2022-10-17T00:20:20.852Z,6.60
2022-10-17T00:22:50.273Z,4.77
2022-10-17T00:25:20.168Z,4.33
2022-10-17T00:27:48.201Z,4.27
2022-10-17T00:30:17.215Z,5.10
2022-10-17T00:32:45.267Z,5.10
2022-10-17T00:35:13.388Z,3.80
2022-10-17T00:37:41.399Z,4.57
2022-10-17T00:40:12.218Z,3.63
2022-10-17T00:42:40.245Z,4.20
2022-10-17T00:45:18.684Z,4.97
2022-10-17T00:47:50.351Z,4.70
2022-10-17T00:50:18.850Z,4.00
2022-10-17T00:52:47.266Z,4.70
2022-10-17T00:55:19.803Z,5.07
2022-10-17T00:57:48.130Z,4.60
2022-10-17T01:00:18.129Z,3.67
2022-10-17T01:02:46.716Z,5.03
2022-10-17T01:05:15.782Z,5.00
2022-10-17T01:07:44.469Z,4.70
2022-10-17T01:10:12.928Z,4.83
2022-10-17T01:12:53.166Z,4.30
2022-10-17T01:15:27.807Z,4.30
2022-10-17T01:18:04.946Z,4.97
2022-10-17T01:21:00.384Z,5.13
2022-10-17T01:24:05.579Z,4.47
2022-10-17T01:26:48.789Z,3.90
2022-10-17T01:29:34.810Z,3.83
2022-10-17T01:32:06.005Z,4.77
2022-10-17T01:34:37.128Z,4.80
2022-10-17T01:37:08.222Z,5.33
2022-10-17T01:39:45.333Z,3.70
2022-10-17T01:42:18.572Z,4.97
2022-10-17T01:44:49.734Z,4.53
2022-10-17T01:47:21.101Z,3.63
2022-10-17T01:49:51.207Z,4.23
2022-10-17T01:52:22.312Z,4.40
2022-10-17T01:54:52.652Z,3.47
2022-10-17T01:57:24.834Z,5.50
2022-10-17T01:59:57.836Z,4.40
2022-10-17T02:02:32.806Z,4.30
2022-10-17T02:05:05.388Z,4.23
2022-10-17T02:07:36.506Z,4.17
2022-10-17T02:10:14.496Z,4.40
2022-10-17T02:12:49.166Z,4.60
2022-10-17T02:15:36.002Z,4.97
2022-10-17T02:18:24.605Z,3.63
2022-10-17T02:20:55.733Z,4.60
2022-10-17T02:23:28.984Z,3.83
2022-10-17T02:26:05.334Z,5.10
2022-10-17T02:28:39.923Z,3.70
2022-10-17T02:31:10.392Z,4.00
2022-10-17T02:33:43.615Z,5.03
2022-10-17T02:36:17.928Z,4.47
2022-10-17T02:39:02.408Z,4.87
2022-10-17T02:41:31.701Z,4.80
2022-10-17T02:44:02.372Z,7.10
2022-10-17T02:46:31.945Z,6.80
2022-10-17T02:49:03.162Z,6.73
2022-10-17T02:51:36.401Z,5.70
2022-10-17T02:54:09.890Z,7.53
2022-10-17T02:56:42.457Z,7.70
2022-10-17T02:59:11.586Z,12.00
2022-10-17T03:01:39.885Z,10.13
2022-10-17T03:04:11.034Z,8.50
2022-10-17T03:06:39.145Z,9.40
2022-10-17T03:09:07.975Z,7.03
2022-10-17T03:11:35.954Z,5.57
2022-10-17T03:14:03.995Z,4.53
2022-10-17T03:16:31.998Z,4.83
2022-10-17T03:18:59.986Z,4.20
2022-10-17T03:21:29.346Z,4.03
2022-10-17T03:23:57.381Z,4.60
2022-10-17T03:26:25.511Z,4.30
2022-10-17T03:28:54.559Z,4.63
2022-10-17T03:31:23.261Z,4.80
2022-10-17T03:33:51.365Z,5.07
2022-10-17T03:36:20.352Z,5.70
2022-10-17T03:38:49.717Z,4.27
2022-10-17T03:41:17.789Z,4.33
2022-10-17T03:43:45.776Z,3.50
2022-10-17T03:46:13.931Z,3.90
2022-10-17T03:48:41.963Z,4.50
2022-10-17T03:51:10.698Z,4.00
2022-10-17T03:53:38.755Z,4.93
2022-10-17T03:56:15.920Z,4.97
2022-10-17T03:58:44.258Z,5.10
2022-10-17T04:01:13.589Z,4.83
2022-10-17T04:03:42.014Z,4.00
2022-10-17T04:06:12.781Z,5.07
2022-10-17T04:08:42.669Z,4.13
2022-10-17T04:11:12.690Z,4.90
2022-10-17T04:13:42.106Z,4.70
2022-10-17T04:16:12.843Z,8.33
2022-10-17T04:18:40.934Z,10.80
2022-10-17T04:21:09.532Z,11.60
2022-10-17T04:23:37.661Z,9.67
2022-10-17T04:26:06.828Z,8.30
2022-10-17T04:28:35.498Z,8.33
2022-10-17T04:31:06.639Z,8.67
2022-10-17T04:33:35.399Z,7.60
2022-10-17T04:36:05.418Z,6.70
2022-10-17T04:38:34.055Z,6.10
2022-10-17T04:41:03.379Z,6.90
2022-10-17T04:43:31.451Z,6.00
2022-10-17T04:45:59.532Z,6.60
2022-10-17T04:48:30.146Z,5.83
2022-10-17T04:50:59.228Z,5.10
2022-10-17T04:53:28.145Z,6.17
2022-10-17T04:55:56.178Z,5.50
2022-10-17T04:58:24.363Z,5.60
2022-10-17T05:00:52.524Z,5.10
2022-10-17T05:03:20.548Z,6.00
2022-10-17T05:05:49.984Z,4.23
2022-10-17T05:08:18.082Z,5.30
2022-10-17T05:10:47.668Z,4.90
2022-10-17T05:13:16.363Z,4.53
2022-10-17T05:15:44.386Z,5.60
2022-10-17T05:18:12.574Z,5.17
2022-10-17T05:20:40.641Z,5.50
2022-10-17T05:23:10.123Z,5.83
2022-10-17T05:25:38.140Z,5.80
2022-10-17T05:28:06.355Z,6.07
2022-10-17T05:30:37.478Z,6.83
2022-10-17T05:33:05.747Z,8.20
2022-10-17T05:35:33.875Z,6.90
2022-10-17T05:38:01.946Z,6.03
2022-10-17T05:40:31.366Z,8.10
2022-10-17T05:42:59.351Z,7.37
2022-10-17T05:45:27.548Z,8.17
2022-10-17T05:47:55.676Z,7.20
2022-10-17T05:50:25.227Z,7.10
2022-10-17T05:52:54.921Z,6.47
2022-10-17T05:55:22.948Z,5.57
2022-10-17T05:57:54.026Z,6.23
2022-10-17T06:00:22.916Z,6.30
2022-10-17T06:02:51.574Z,6.00
2022-10-17T06:05:21.225Z,6.10
2022-10-17T06:07:52.562Z,5.50
2022-10-17T06:10:20.788Z,7.03
2022-10-17T06:12:48.885Z,7.73
2022-10-17T06:15:18.548Z,7.60
2022-10-17T06:17:46.797Z,6.47
2022-10-17T06:20:15.206Z,7.20
2022-10-17T06:22:43.242Z,9.53
2022-10-17T06:25:12.005Z,9.90
2022-10-17T06:27:40.177Z,7.90
2022-10-17T06:30:20.384Z,6.90
2022-10-17T06:32:53.609Z,6.70
2022-10-17T06:35:23.770Z,6.77
2022-10-17T06:37:52.023Z,7.10
2022-10-17T06:40:20.371Z,7.43
2022-10-17T06:42:48.714Z,6.60
2022-10-17T06:45:18.721Z,7.43
2022-10-17T06:47:49.394Z,7.40
2022-10-17T06:50:18.941Z,8.23
2022-10-17T06:52:47.509Z,7.13
2022-10-17T06:55:19.964Z,6.97
2022-10-17T06:57:52.826Z,8.43
2022-10-17T07:00:21.484Z,8.70
2022-10-17T07:02:51.515Z,6.13
2022-10-17T07:05:20.620Z,6.13
2022-10-17T07:07:51.079Z,7.03
2022-10-17T07:10:21.621Z,7.80
2022-10-17T07:13:02.999Z,10.63
2022-10-17T07:15:32.486Z,11.47
2022-10-17T07:18:02.331Z,13.40
2022-10-17T07:20:33.828Z,13.07
2022-10-17T07:23:01.917Z,14.00
2022-10-17T07:25:30.085Z,15.43
2022-10-17T07:27:58.368Z,15.37
2022-10-17T07:30:26.680Z,15.10
2022-10-17T07:32:55.819Z,17.87
2022-10-17T07:35:25.380Z,21.10
2022-10-17T07:37:53.536Z,22.37
2022-10-17T07:40:21.691Z,19.80
2022-10-17T07:42:50.178Z,19.33
2022-10-17T07:45:18.662Z,17.30
2022-10-17T07:47:47.046Z,19.63
2022-10-17T07:50:15.608Z,19.30
2022-10-17T07:52:45.115Z,20.67
2022-10-17T07:55:13.425Z,22.53
2022-10-17T07:57:41.553Z,20.93
2022-10-17T08:00:11.838Z,21.40
2022-10-17T08:02:41.036Z,20.60
2022-10-17T08:05:10.352Z,19.67
2022-10-17T08:07:39.103Z,20.03
2022-10-17T08:12:37.740Z,21.77
2022-10-17T08:15:07.075Z,19.80
2022-10-17T08:17:35.823Z,19.60
2022-10-17T08:20:04.155Z,21.37
2022-10-17T08:22:32.432Z,19.40
2022-10-17T08:25:00.874Z,19.97
2022-10-17T08:27:30.527Z,18.80
2022-10-17T08:29:59.029Z,21.20
2022-10-17T08:32:29.488Z,21.07
2022-10-17T08:34:58.337Z,22.97
2022-10-17T08:37:26.879Z,20.50
2022-10-17T08:39:57.530Z,18.10
2022-10-17T08:42:39.775Z,20.00
2022-10-17T08:45:16.352Z,16.60
2022-10-17T08:47:47.163Z,19.17
2022-10-17T08:50:19.973Z,16.60
2022-10-17T08:52:51.502Z,17.80
2022-10-17T08:55:23.928Z,17.70
2022-10-17T08:57:53.490Z,17.57
2022-10-17T09:00:22.608Z,18.03
2022-10-17T09:02:59.988Z,18.37
2022-10-17T09:05:37.272Z,19.57
2022-10-17T09:08:17.050Z,17.43
2022-10-17T09:10:53.995Z,19.60
2022-10-17T09:13:32.341Z,17.37
2022-10-17T09:16:31.119Z,19.60
2022-10-17T09:19:04.661Z,20.20
2022-10-17T09:21:42.306Z,19.60
2022-10-17T09:24:16.039Z,20.03
2022-10-17T09:26:48.041Z,18.40
2022-10-17T09:29:21.633Z,19.10
2022-10-17T09:34:30.815Z,16.70
2022-10-17T09:37:00.534Z,16.37
2022-10-17T09:39:32.028Z,14.17
2022-10-17T09:42:02.166Z,13.13
2022-10-17T09:44:34.078Z,15.07
2022-10-17T09:47:20.561Z,13.33
2022-10-17T09:49:49.989Z,11.67
2022-10-17T09:52:19.892Z,13.10
2022-10-17T09:54:49.792Z,13.17
2022-10-17T09:57:19.382Z,13.30
2022-10-17T09:59:56.966Z,12.20
2022-10-17T10:02:27.533Z,10.97
2022-10-17T10:05:06.393Z,12.02
2022-10-17T10:07:37.872Z,10.95
2022-10-17T10:10:09.363Z,11.68
2022-10-17T10:12:39.783Z,11.88
2022-10-17T10:15:34.555Z,11.57
2022-10-17T10:18:02.803Z,11.07
2022-10-17T10:20:34.474Z,10.65
2022-10-17T10:23:13.643Z,11.82
2022-10-17T10:25:52.260Z,11.45
2022-10-17T10:28:21.501Z,12.25
2022-10-17T10:30:52.680Z,11.07
2022-10-17T10:33:21.715Z,11.73
2022-10-17T10:35:55.606Z,10.80
2022-10-17T10:38:24.213Z,11.60
2022-10-17T10:40:56.590Z,11.52
2022-10-17T10:43:31.151Z,11.90
2022-10-17T10:46:01.252Z,12.02
2022-10-17T10:48:33.352Z,12.43
2022-10-17T10:51:04.111Z,13.43
2022-10-17T10:53:38.386Z,12.38
2022-10-17T10:56:11.859Z,12.18
2022-10-17T10:58:45.060Z,12.45
2022-10-17T11:01:21.747Z,12.65
2022-10-17T11:03:59.755Z,13.50
2022-10-17T11:06:30.923Z,13.55
2022-10-17T11:09:11.122Z,13.60
2022-10-17T11:11:42.603Z,13.00
2022-10-17T11:14:14.590Z,14.30
2022-10-17T11:16:48.612Z,13.97
2022-10-17T11:19:22.105Z,15.03
2022-10-17T11:21:59.986Z,14.97
2022-10-17T11:24:32.814Z,15.40
2022-10-17T11:27:03.070Z,15.27
2022-10-17T11:29:33.570Z,14.53
2022-10-17T11:32:05.285Z,14.80
2022-10-17T11:34:36.531Z,16.57
2022-10-17T11:37:10.999Z,14.97
2022-10-17T11:42:16.589Z,13.70
2022-10-17T11:44:45.295Z,17.23
2022-10-17T11:47:26.497Z,16.80
2022-10-17T11:51:59.674Z,14.90
2022-10-17T11:52:57.084Z,15.30
2022-10-17T11:55:26.783Z,15.90
2022-10-17T11:58:07.154Z,16.43
2022-10-17T12:00:47.516Z,14.87
2022-10-17T12:03:46.866Z,14.73
2022-10-17T12:06:25.840Z,15.80
2022-10-17T12:09:02.087Z,16.23
2022-10-17T12:11:43.937Z,14.73
2022-10-17T12:14:36.818Z,15.30
2022-10-17T12:17:06.667Z,14.93
2022-10-17T12:19:37.531Z,17.10
2022-10-17T12:22:21.028Z,16.20
2022-10-17T12:24:57.661Z,14.57
2022-10-17T12:27:42.478Z,16.87
2022-10-17T12:30:19.906Z,15.90
2022-10-17T12:33:07.444Z,15.70
2022-10-17T12:35:39.105Z,15.20
2022-10-17T12:38:21.643Z,14.33
2022-10-17T12:40:54.821Z,15.60
2022-10-17T12:46:46.316Z,16.23
2022-10-17T12:49:39.361Z,17.00
2022-10-17T12:52:23.627Z,15.43
2022-10-17T12:55:12.526Z,16.20
2022-10-17T12:57:45.828Z,13.40
2022-10-17T13:00:22.249Z,15.13
2022-10-17T13:02:53.221Z,15.00
2022-10-17T13:05:29.160Z,15.73
2022-10-17T13:08:01.466Z,16.13
2022-10-17T13:10:32.584Z,17.37
2022-10-17T13:13:06.521Z,16.27
2022-10-17T13:15:35.158Z,14.90
2022-10-17T13:18:03.378Z,16.40
2022-10-17T13:20:32.924Z,14.80
2022-10-17T13:23:02.711Z,15.13
2022-10-17T13:25:31.063Z,14.23
2022-10-17T13:28:08.561Z,15.67
2022-10-17T13:30:38.143Z,14.70
2022-10-17T13:33:20.578Z,14.80
2022-10-17T13:35:59.982Z,13.53
2022-10-17T13:38:35.636Z,14.60
2022-10-17T13:41:34.291Z,14.30
2022-10-17T13:44:01.005Z,15.63
2022-10-17T13:46:39.819Z,14.80
2022-10-17T13:49:23.307Z,16.00
2022-10-17T13:51:55.370Z,16.40
2022-10-17T13:54:40.525Z,16.43
2022-10-17T13:57:19.291Z,15.27
2022-10-17T13:59:49.135Z,15.00
2022-10-17T14:02:19.257Z,15.27
2022-10-17T14:05:15.565Z,16.60
2022-10-17T14:08:05.858Z,14.50
2022-10-17T14:10:32.336Z,15.33
2022-10-17T14:13:01.836Z,15.43
2022-10-17T14:15:32.426Z,15.00
2022-10-17T14:18:05.435Z,14.90
2022-10-17T14:23:34.327Z,15.07
2022-10-17T14:26:09.285Z,14.50
2022-10-17T14:28:37.880Z,16.33
2022-10-17T14:31:22.954Z,14.87
2022-10-17T14:33:56.295Z,15.17
2022-10-17T14:36:38.840Z,15.40
2022-10-17T14:39:13.326Z,16.57
2022-10-17T14:41:45.935Z,13.83
2022-10-17T14:44:21.723Z,15.20
2022-10-17T14:46:53.985Z,14.30
2022-10-17T14:49:27.307Z,14.73
2022-10-17T14:52:22.076Z,15.07
2022-10-17T14:54:51.224Z,16.50
2022-10-17T14:57:25.550Z,14.83
2022-10-17T14:59:55.634Z,16.00
2022-10-17T15:02:26.201Z,15.40
2022-10-17T15:04:56.354Z,15.70
2022-10-17T15:07:25.772Z,15.10
2022-10-17T15:09:54.934Z,14.90
2022-10-17T15:12:26.802Z,15.30
2022-10-17T15:14:55.752Z,16.17
2022-10-17T15:17:27.103Z,15.27
2022-10-17T15:19:55.646Z,17.90
2022-10-17T15:22:24.563Z,16.40
2022-10-17T15:24:53.028Z,16.73
2022-10-17T15:27:26.379Z,15.97
2022-10-17T15:29:54.780Z,17.20
2022-10-17T15:32:23.550Z,18.40
2022-10-17T15:34:52.351Z,16.77
2022-10-17T15:37:23.014Z,17.40
2022-10-17T15:39:54.714Z,17.37
2022-10-17T15:42:30.608Z,18.30
2022-10-17T15:44:59.383Z,17.83
2022-10-17T15:47:31.477Z,18.90
2022-10-17T15:50:01.645Z,16.80
2022-10-17T15:52:31.003Z,16.43
2022-10-17T15:55:02.547Z,17.00
2022-10-17T15:57:39.563Z,18.47
2022-10-17T16:00:16.340Z,16.67
2022-10-17T16:02:46.004Z,16.50
2022-10-17T16:05:17.795Z,16.27
2022-10-17T16:07:47.929Z,17.40
2022-10-17T16:10:16.545Z,15.97
2022-10-17T16:12:50.486Z,17.23
2022-10-17T16:15:22.600Z,17.27
2022-10-17T16:17:51.624Z,18.10
2022-10-17T16:20:20.924Z,18.50
2022-10-17T16:22:49.752Z,17.57
2022-10-17T16:25:20.555Z,18.20
2022-10-17T16:27:53.972Z,17.77
2022-10-17T16:30:23.769Z,17.90
2022-10-17T16:32:54.684Z,17.40
2022-10-17T16:35:25.350Z,18.13
2022-10-17T16:37:53.815Z,18.70
2022-10-17T16:40:22.438Z,19.63
2022-10-17T16:42:52.463Z,19.80
2022-10-17T16:45:22.945Z,17.80
2022-10-17T16:47:53.104Z,18.50
2022-10-17T16:50:22.119Z,18.20
2022-10-17T16:52:50.616Z,17.87
2022-10-17T16:55:20.804Z,18.70
2022-10-17T16:57:49.956Z,19.30
2022-10-17T17:00:19.518Z,19.77
2022-10-17T17:02:49.980Z,20.40
2022-10-17T17:05:20.225Z,19.37
2022-10-17T17:07:49.553Z,18.67
2022-10-17T17:10:18.084Z,19.47
2022-10-17T17:12:46.455Z,19.10
2022-10-17T17:15:15.066Z,21.33
2022-10-17T17:17:50.551Z,19.30
2022-10-17T17:20:20.323Z,18.47
2022-10-17T17:22:51.019Z,20.10
2022-10-17T17:25:19.930Z,19.57
2022-10-17T17:27:50.288Z,21.13
2022-10-17T17:30:19.846Z,19.90
2022-10-17T17:32:50.451Z,20.10
2022-10-17T17:35:19.507Z,20.37
2022-10-17T17:37:48.162Z,19.23
2022-10-17T17:40:18.391Z,18.40
2022-10-17T17:42:47.203Z,19.50
2022-10-17T17:45:16.509Z,19.93
2022-10-17T17:47:45.545Z,20.40
2022-10-17T17:50:20.420Z,19.27
2022-10-17T17:52:51.627Z,20.23
2022-10-17T17:55:20.632Z,19.50
2022-10-17T17:57:49.426Z,20.27
2022-10-17T18:00:17.862Z,20.53
2022-10-17T18:02:48.204Z,20.90
2022-10-17T18:05:19.186Z,19.63
2022-10-17T18:07:48.615Z,20.67
2022-10-17T18:10:18.009Z,20.40
2022-10-17T18:12:47.347Z,22.70
2022-10-17T18:15:16.154Z,20.43
2022-10-17T18:17:45.205Z,21.37
2022-10-17T18:20:14.546Z,22.17
2022-10-17T18:22:44.728Z,22.63
2022-10-17T18:25:13.356Z,21.90
2022-10-17T18:27:42.471Z,21.47
2022-10-17T18:30:12.344Z,20.83
2022-10-17T18:32:41.270Z,21.47
2022-10-17T18:35:11.043Z,20.27
2022-10-17T18:40:11.931Z,19.10
2022-10-17T18:42:43.455Z,21.57
2022-10-17T18:45:12.728Z,21.50
2022-10-17T18:47:45.483Z,21.77
2022-10-17T18:50:13.849Z,19.90
2022-10-17T18:52:43.185Z,23.13
2022-10-17T18:55:13.359Z,20.73
2022-10-17T18:57:41.844Z,22.00
2022-10-17T19:00:12.700Z,22.90
2022-10-17T19:02:41.872Z,24.97
2022-10-17T19:05:11.312Z,22.10
2022-10-17T19:07:40.352Z,21.50
2022-10-17T19:10:09.690Z,21.13
2022-10-17T19:12:39.610Z,20.33
2022-10-17T19:15:09.488Z,20.30
2022-10-17T19:17:38.211Z,24.03
2022-10-17T19:20:08.395Z,20.33
2022-10-17T19:22:36.746Z,20.67
2022-10-17T19:25:06.171Z,18.80
2022-10-17T19:27:35.277Z,20.33
2022-10-17T19:30:06.525Z,20.20
2022-10-17T19:32:36.901Z,21.17
2022-10-17T19:35:06.678Z,18.77
2022-10-17T19:37:35.603Z,21.40
2022-10-17T19:40:04.461Z,19.57
2022-10-17T19:42:35.340Z,20.40
2022-10-17T19:45:06.000Z,20.47
2022-10-17T19:47:35.559Z,19.10
2022-10-17T19:50:04.945Z,18.00
2022-10-17T19:52:34.052Z,20.23
2022-10-17T19:55:03.093Z,18.50
2022-10-17T19:57:32.051Z,16.90
2022-10-17T20:00:01.197Z,17.80
2022-10-17T20:02:32.359Z,19.20
2022-10-17T20:05:17.599Z,19.30
2022-10-17T20:07:47.362Z,18.63
2022-10-17T20:10:16.596Z,18.13
2022-10-17T20:12:45.578Z,16.37
2022-10-17T20:15:15.159Z,16.57
2022-10-17T20:17:45.659Z,17.53
2022-10-17T20:20:14.527Z,16.33
2022-10-17T20:22:44.393Z,17.67
2022-10-17T20:25:13.479Z,18.60
2022-10-17T20:27:42.372Z,17.63
2022-10-17T20:30:12.218Z,18.00
2022-10-17T20:32:41.148Z,18.00
2022-10-17T20:35:12.171Z,17.60
2022-10-17T20:37:42.728Z,18.43
2022-10-17T20:43:02.645Z,16.80
2022-10-17T20:45:44.245Z,17.60
2022-10-17T20:48:20.513Z,16.23
2022-10-17T20:50:51.154Z,15.90
2022-10-17T20:53:37.325Z,16.20
2022-10-17T20:56:13.327Z,16.37
2022-10-17T20:58:42.223Z,17.30
2022-10-17T21:01:12.024Z,14.83
2022-10-17T21:03:44.024Z,16.10
2022-10-17T21:06:17.061Z,16.60
2022-10-17T21:08:46.232Z,15.13
2022-10-17T21:11:17.382Z,16.37
2022-10-17T21:13:47.261Z,16.90
2022-10-17T21:16:17.588Z,13.30
2022-10-17T21:18:46.355Z,15.67
2022-10-17T21:21:18.648Z,14.87
2022-10-17T21:23:49.043Z,14.70
2022-10-17T21:26:18.280Z,15.40
2022-10-17T21:28:48.086Z,15.90
2022-10-17T21:31:19.767Z,15.40
2022-10-17T21:33:49.861Z,13.93
2022-10-17T21:36:20.414Z,15.90
2022-10-17T21:38:51.151Z,15.07
2022-10-17T21:41:21.962Z,17.13
2022-10-17T21:43:53.991Z,14.47
2022-10-17T21:46:25.506Z,13.80
2022-10-17T21:48:54.671Z,15.17
2022-10-17T21:51:26.085Z,14.63
2022-10-17T21:53:56.189Z,14.50
2022-10-17T21:56:29.095Z,14.10
2022-10-17T21:58:58.331Z,15.73
2022-10-17T22:01:28.537Z,13.90
2022-10-17T22:03:58.774Z,13.77
2022-10-17T22:06:47.087Z,13.67
2022-10-17T22:09:19.609Z,15.60
2022-10-17T22:11:49.981Z,13.70
2022-10-17T22:14:21.057Z,12.77
2022-10-17T22:16:50.596Z,14.27
2022-10-17T22:19:27.379Z,13.83
2022-10-17T22:21:57.776Z,14.63
2022-10-17T22:24:26.412Z,14.60
2022-10-17T22:26:55.112Z,14.17
2022-10-17T22:29:24.230Z,13.70
2022-10-17T22:31:52.609Z,13.50
2022-10-17T22:34:21.141Z,13.00
2022-10-17T22:36:49.965Z,14.40
2022-10-17T22:39:20.262Z,14.83
2022-10-17T22:41:48.896Z,13.60
2022-10-17T22:44:17.788Z,13.90
2022-10-17T22:46:46.473Z,13.53
2022-10-17T22:49:15.599Z,15.17
2022-10-17T22:51:44.492Z,15.40
2022-10-17T22:54:13.662Z,13.87
2022-10-17T22:56:43.595Z,14.17
2022-10-17T22:59:12.608Z,12.80
2022-10-17T23:01:41.400Z,13.10
2022-10-17T23:04:10.186Z,12.70
2022-10-17T23:06:38.819Z,14.70
2022-10-17T23:09:07.657Z,12.60
2022-10-17T23:11:36.610Z,13.77
2022-10-17T23:14:06.924Z,13.87
2022-10-17T23:16:35.239Z,13.13
2022-10-17T23:19:03.984Z,13.87
2022-10-17T23:21:32.786Z,13.37
2022-10-17T23:24:01.647Z,14.03
2022-10-17T23:26:30.443Z,13.03
2022-10-17T23:28:59.197Z,12.90
2022-10-17T23:31:29.523Z,13.57
2022-10-17T23:33:58.285Z,13.00
2022-10-17T23:36:27.277Z,13.60
2022-10-17T23:38:58.457Z,14.47
2022-10-17T23:41:27.163Z,14.20
2022-10-17T23:43:55.619Z,11.80
2022-10-17T23:46:24.155Z,13.70
2022-10-17T23:48:54.177Z,12.67
2022-10-17T23:51:22.775Z,13.20
2022-10-17T23:53:51.536Z,13.93
2022-10-17T23:56:20.788Z,11.37
2022-10-17T23:58:49.702Z,12.80
